Tiempo atmosférico en la estación meteorológica de Lagunas De Somoza, León (1020 m.)



Fecha
DESCASC
Temp. máxima en grados centígrados (hora)
DESCASC
Temp. mínima en grados centígrados (hora)
DESCASC
Temp. media en grados centígrados
DESCASC
Racha de viento máxima en m/sg (hora)
DESCASC
Velocidad máxima media en intervalos de 10 minutos(hora)
DESCASC
Precipitaciones diarias en mm
DESCASC
Precipitaciones de 00:00 a 06:00 en mm
DESCASC
Precipitaciones de 06:00 a 12:00 en mm
DESCASC
Precipitaciones de 12:00 a 18:00 en mm
DESCASC
Precipitaciones de 18:00 a 24:00 en mm
DESCASC
16-04-2019 16.5 (18:30) -0.9 (07:30) 7.8 8.89 (15:00) 5 (18:10) 0 0 0 0 0
15-04-2019 16 (14:30) 5.4 (22:50) 10.7 19.17 (16:10) 8.61 (18:30) 5.7 0 5.7 0 0
14-04-2019 20.6 (15:50) 9.1 (00:00) 14.9 7.78 (18:50) 5.28 (19:40) 0 0 0 0 0
13-04-2019 19 (15:20) 3.4 (00:00) 11.2 6.67 (14:40) 3.89 (15:30) 0 0 0 0 0
12-04-2019 16.6 (18:40) -3.4 (-00:0) 6.6 6.11 (16:00) 3.33 (19:40) 0 0 0 0 0
11-04-2019 12.7 (19:00) -0.7 (-00:0) 6 9.44 (14:30) 4.17 (04:10) 0 0 0 0 0
10-04-2019 12.7 (18:00) 2.4 (00:00) 7.5 14.17 (12:30) 9.17 (11:50) 0.1 0 0.1 0 0
09-04-2019 10.3 (18:40) 2.6 (00:00) 6.5 10.83 (14:20) 7.22 (18:50) 1.9 0.5 1.3 0 0.1
08-04-2019 11.6 (17:30) 1.8 (00:00) 6.7 11.11 (18:10) 7.5 (18:10) 3.2 3.1 0.1 0 0
07-04-2019 10.6 (15:00) -1.1 (-00:0) 4.8 10 (16:10) 5 (16:10) 3.1 0 0 0.5 2.6
06-04-2019 7.7 (15:50) -0.7 (-00:0) 3.5 17.78 (17:50) 12.5 (19:00) 0.2 0 0 0.2 0
05-04-2019 9 (16:00) -0.5 (-00:0) 4.3 9.72 (15:40) 5.83 (01:30) 0.5 0.3 0.2 0 0
04-04-2019 8.9 (15:30) -1.4 (-00:0) 3.7 11.67 (02:20) 8.06 (02:20) 0 0 0 0 0
03-04-2019 7 (13:40) -0.4 (00:00) 3.3 13.61 (13:40) 8.33 (12:00) 0.1 0 0 0.1 0
02-04-2019 15.6 (17:20) 1.1 (00:00) 8.4 19.17 (18:10) 8.33 (18:10) 0 0 0 0 0
01-04-2019 16.6 (17:50) -0.7 (-00:0) 8 7.78 (17:50) 4.44 (16:50) 0 0 0 0 0
31-03-2019 17.2 (17:20) 0.7 (00:00) 9 7.22 (15:00) 4.17 (16:30) 0 0 0 0 0
30-03-2019 16.4 (15:30) 4.8 (00:00) 10.6 6.67 (10:00) 4.17 (18:50) 0 0 0 0 0
29-03-2019 18.4 (16:50) -1.3 (-00:0) 8.5 8.61 (15:10) 4.17 (17:30) 0 0 0 0 0
28-03-2019 17.7 (16:00) -2.8 (-00:0) 7.5 11.39 (16:40) 5 (14:10) 0 0 0 0 0
27-03-2019 18.6 (16:40) -1.7 (-00:0) 8.5 9.72 (10:00) 5 (11:10) 0 0 0 0 0
26-03-2019 16.3 (16:10) -3 (-00:0) 6.6 14.17 (14:20) 8.33 (14:40) 0 0 0 0 0
25-03-2019 16.6 (16:10) 0.9 (00:00) 8.8 9.17 (18:50) 5.83 (18:50) 0 0 0 0 0
24-03-2019 19.1 (16:30) 2.3 (00:00) 10.7 9.17 (13:40) 4.72 (13:40) 0 0 0 0 0
23-03-2019 18 (17:20) -1.3 (-00:0) 8.4 6.39 (17:30) 3.33 (15:10) 0 0 0 0 0
22-03-2019 16.3 (17:10) -3.4 (-00:0) 6.4 6.11 (13:40) 3.33 (17:40) 0 0 0 0 0
21-03-2019 14.4 (17:20) -3.4 (-00:0) 5.5 7.22 (13:30) 3.06 (04:40) 0 0 0 0 0
20-03-2019 13.7 (17:20) -3 (-00:0) 5.3 7.22 (14:30) 3.61 (02:50) 0 0 0 0 0
19-03-2019 13.7 (16:30) -2.8 (-00:0) 5.4 10.28 (11:40) 5.28 (12:40) 0 0 0 0 0

Gráficas

Temp. máximas Temp. mínimas Temp. medias Precipitaciones Rachas de viento máximas Velocidades máximas media en intervalos de 10 minutos

Datos horarios

Fecha y hora oficial Temperatura (ºC) Velocidad del viento (km/h) Dirección del viento Racha (km/h) Dirección de racha Precipitación (mm) Presión (hPa) Tendencia (hPa) Humedad (%)
2019-04-17 23:00:00 8.1 9 Sur 22 Sudoeste 0.7 894.2 0.9 89
2019-04-17 22:00:00 8.8 17 Sudoeste 38 Sudoeste 0.6 894 2 84
2019-04-17 21:00:00 10 16 Sudoeste 35 Oeste 0.3 893.2 1.1 85
2019-04-17 20:00:00 11 17 Sudoeste 62 Sudoeste 0.1 893.3 0.9 69
2019-04-17 19:00:00 16.3 28 Sur 71 Sur 0 892 -0.9 36
2019-04-17 18:00:00 16.1 24 Sur 55 Sur 0 892.1 -1.7 37
2019-04-17 17:00:00 15.6 30 Sur 53 Sur 0 892.4 -2.3 39
2019-04-17 16:00:00 16.2 26 Sur 46 Sur 0 892.9 -2.3 41
2019-04-17 15:00:00 15.5 18 Sudeste 36 Sur 0 893.8 -1.1 47
2019-04-17 14:00:00 14.8 21 Sur 42 Sur 0 894.7 -0.4 50
2019-04-17 13:00:00 12.9 18 Sur 39 Sur 0 895.2 0 51
2019-04-17 12:00:00 13.1 13 Este 23 Este 0 894.9 -0.2 55
2019-04-17 11:00:00 11.4 8 Este 19 Nordeste 0 895.1 0.3 60
2019-04-17 10:00:00 7.7 10 Nordeste 17 Nordeste 0 895.2 0.4 78
2019-04-17 09:00:00 6.3 9 Nordeste 17 Nordeste 0 895.1 0.1 78
2019-04-17 08:00:00 5.7 10 Nordeste 17 Nordeste 0 894.8 -0.4 81
2019-04-17 07:00:00 5.2 0 Calma 10 Norte 0 894.8 -0.9 81
2019-04-17 06:00:00 5.3 5 Norte 10 Norte 0 895 -1.3 82
2019-04-17 05:00:00 3.3 2 Norte 5 Noroeste 0 895.2 -1.8 83
2019-04-17 04:00:00 4.8 0 Calma 7 Nordeste 0 895.7 -1.8 75
2019-04-17 03:00:00 6.2 3 Nordeste 10 Este 0 896.3 -1.7 70
2019-04-17 02:00:00 5.4 0 Calma 5 Sudeste 0 897 -1.3 74
2019-04-17 01:00:00 7.8 0 Calma 5 Este 0 897.5 -1 67
2019-04-17 00:00:00 6.6 0 Calma 3 Este 0 898 -0.5 73
2019-04-16 23:00:00 7.7 0 Calma 3 Este 0 898.3 -0.4 67
2019-04-16 22:00:00 8.9 0 Calma 6 Sudeste 0 898.5 -0.5 54
2019-04-16 21:00:00 12.7 6 Sudeste 23 Sudeste 0 898.5 -0.3 39
2019-04-16 20:00:00 15.3 13 Sudeste 27 Este 0 898.7 -1 34
2019-04-16 19:00:00 16.1 18 Sudeste 29 Sudeste 0 899 -1.1 31
2019-04-16 18:00:00 16.1 17 Sudeste 29 Sudeste 0 898.8 -1.8 31
2019-04-16 17:00:00 15.5 15 Sudeste 32 Sudeste 0 899.7 -1.5 33
2019-04-16 16:00:00 14.4 12 Sudeste 28 Sudeste 0 900.1 -1.4 36
2019-04-16 15:00:00 14.5 17 Este 32 Este 0 900.6 -1.5 35
2019-04-16 14:00:00 12.2 16 Este 29 Este 0 901.2 -1.1 49
2019-04-16 13:00:00 11.3 9 Este 18 Sudeste 0 901.5 -1.2 54
2019-04-16 12:00:00 9.2 9 Nordeste 19 Norte 0 902.1 -0.3 72
2019-04-16 11:00:00 6.5 10 Norte 16 Nordeste 0 902.3 0.2 83
2019-04-16 10:00:00 6 6 Norte 13 Norte 0 902.7 0.7 81
2019-04-16 09:00:00 3.4 4 Nordeste 8 Nordeste 0 902.4 0.6 92
2019-04-16 08:00:00 -0.8 0 Calma 7 Oeste 0 902.1 0.5 92
2019-04-16 07:00:00 -0.3 0 Calma 9 Oeste 0 902 0.2 92
2019-04-16 06:00:00 0 8 Oeste 12 Oeste 0 901.8 -0.3 92
2019-04-16 05:00:00 0.5 6 Noroeste 12 Oeste 0 901.6 -0.4 88
2019-04-16 04:00:00 3 6 Noroeste 13 Norte 0 901.8 0.1 88
2019-04-16 03:00:00 1.7 5 Noroeste 12 Oeste 0 902.1 0.8 86
2019-04-16 02:00:00 3.3 4 Sur 17 Oeste 0 902 1 81
2019-04-16 01:00:00 4.1 9 Noroeste 24 Oeste 0 901.7 1.6 75
2019-04-16 00:00:00 6.3 18 Oeste 29 Oeste 0 901.3 2.3 68
2019-04-15 23:00:00 6.2 17 Oeste 25 Oeste 0 901 2.5 70
2019-04-15 22:00:00 7.4 15 Oeste 31 Oeste 0 900.1 2.5 64
2019-04-15 21:00:00 8.7 22 Oeste 31 Oeste 0 899 2.4 65
2019-04-15 20:00:00 10.7 21 Oeste 34 Oeste 0 898.5 2.2 63
2019-04-15 19:00:00 12 16 Oeste 40 Oeste 0 897.6 1.1 54
2019-04-15 18:00:00 12.3 16 Oeste 35 Oeste 0 896.6 1 46
2019-04-15 17:00:00 12.7 21 Oeste 69 Oeste 0 896.3 1.2 53
2019-04-15 16:00:00 9.7 24 Oeste 42 Oeste 0 896.5 1.1 70
2019-04-15 15:00:00 13.2 25 Sudoeste 44 Sudoeste 0 895.6 0.5 51
2019-04-15 14:00:00 15.1 19 Sur 50 Sur 0 895.1 0.2 49
2019-04-15 13:00:00 14.5 21 Sur 44 Sur 0 895.4 0.1 63
2019-04-15 12:00:00 12.4 12 Sur 40 Sur 2.8 895.1 -0.7 89
2019-04-15 11:00:00 11.8 10 Sur 27 Sudeste 2.5 894.9 -1.3 96
2019-04-15 10:00:00 11 13 Sudeste 24 Sudeste 0.2 895.3 -1.2 96
2019-04-15 09:00:00 10.4 9 Sudeste 16 Sudeste 0.2 895.8 -1.3 96
2019-04-15 08:00:00 10 9 Sudeste 19 Este 0 896.2 -1.5 95
2019-04-15 07:00:00 10.5 8 Sudeste 17 Sudeste 0 896.5 -1.7 94
2019-04-15 06:00:00 11.3 6 Este 16 Sur 0 897.1 -1.8 88
2019-04-15 05:00:00 12.5 13 Sur 22 Sudeste 0 897.7 -1.7 84
2019-04-15 04:00:00 13 15 Sur 23 Sur 0 898.2 -1.6 83
2019-04-15 03:00:00 11.9 0 Calma 21 Este 0 898.9 -1.1 80
2019-04-15 02:00:00 12.6 14 Este 18 Sudeste 0 899.4 -0.7 80
2019-04-15 01:00:00 11.3 0 Calma 10 Sudoeste 0 899.8 -0.2 75
2019-04-15 00:00:00 13.1 11 Sudoeste 19 Sudoeste 0 900 0.1 68
2019-04-14 23:00:00 11.6 5 Oeste 10 Oeste 0 900.1 0.4 74
2019-04-14 22:00:00 13 0 Calma 12 Sur 0 900 0.1 66
2019-04-14 21:00:00 15.3 8 Sudeste 23 Sur 0 899.9 0 57
2019-04-14 20:00:00 17.5 13 Sudeste 28 Sur 0 899.7 -1 52
2019-04-14 19:00:00 18.8 18 Sur 28 Sur 0 899.9 -1.5 48
2019-04-14 18:00:00 19.1 13 Sudeste 28 Sudeste 0 899.9 -1.8 50
2019-04-14 17:00:00 19.1 5 Sudeste 23 Este 0 900.7 -1.1 50
2019-04-14 16:00:00 20.3 9 Sudeste 20 Sudeste 0 901.4 -0.7 46
2019-04-14 15:00:00 19.2 6 Nordeste 15 Sudeste 0 901.7 -0.6 48
2019-04-14 14:00:00 19.1 5 Sudeste 14 Sudeste 0 901.8 -0.3 49
2019-04-14 13:00:00 16.4 9 Este 14 Sudeste 0 902.1 -0.1 58
2019-04-14 12:00:00 16 0 Calma 7 Este 0 902.3 0.1 61
2019-04-14 11:00:00 14.8 0 Calma 12 Noroeste 0 902.1 0.4 68
2019-04-14 10:00:00 13.1 8 Norte 19 Norte 0 902.2 0.6 79
2019-04-14 09:00:00 11.6 8 Norte 15 Noroeste 0 902.2 0.5 82
2019-04-14 08:00:00 10.1 0 Calma 15 Oeste 0 901.7 -0.2 79
2019-04-14 07:00:00 9.2 0 Calma 19 Oeste 0 901.6 -0.4 80
2019-04-14 06:00:00 10.4 14 Oeste 21 Noroeste 0 901.7 -0.6 77
2019-04-14 05:00:00 10 4 Noroeste 20 Noroeste 0 901.9 -1.1 78
2019-04-14 04:00:00 11 11 Noroeste 21 Oeste 0 902 -0.7 75
2019-04-14 03:00:00 10.9 8 Noroeste 15 Oeste 0 902.3 -0.7 76
2019-04-14 02:00:00 11 7 Oeste 21 Noroeste 0 903 0.1 77
2019-04-14 01:00:00 12 13 Oeste 19 Oeste 0 902.7 0 67
2019-04-14 00:00:00 12.3 5 Oeste 14 Oeste 0 903 0.8 59
2019-04-13 23:00:00 13.4 8 Noroeste 16 Oeste 0 902.9 0.8 52
2019-04-13 22:00:00 13.7 4 Noroeste 15 Noroeste 0 902.7 0.9 48
2019-04-13 21:00:00 14.2 6 Noroeste 22 Oeste 0 902.2 0.4 45
2019-04-13 20:00:00 16.3 9 Noroeste 21 Oeste 0 902.1 0.1 39
2019-04-13 19:00:00 17.2 8 Noroeste 19 Oeste 0 901.8 -0.3 36
2019-04-13 18:00:00 17.7 10 Noroeste 19 Noroeste 0 901.8 -0.5 35
2019-04-13 17:00:00 17.4 5 Norte 17 Noroeste 0 902 -0.7 35
2019-04-13 16:00:00 17.9 9 Sudeste 24 Sudeste 0 902.1 -1.1 35
2019-04-13 15:00:00 18.1 7 Sudeste 24 Este 0 902.3 -1.2 35
2019-04-13 14:00:00 16.3 8 Este 21 Sudeste 0 902.7 -1 41
2019-04-13 13:00:00 14.7 6 Sudeste 21 Este 0 903.2 -0.2 43
2019-04-13 12:00:00 13.4 5 Sudeste 13 Este 0 903.5 0 46
2019-04-13 11:00:00 10.5 3 Este 11 Norte 0 903.7 0.3 51
2019-04-13 10:00:00 7.3 5 Nordeste 9 Nordeste 0 903.4 0.1 63
2019-04-13 09:00:00 5.8 0 Calma 6 Norte 0 903.5 0.4 72
2019-04-13 08:00:00 3.6 2 Noroeste 9 Oeste 0 903.4 0.4 75
2019-04-13 07:00:00 3.8 6 Oeste 8 Oeste 0 903.3 0 70
2019-04-13 06:00:00 5 4 Oeste 9 Norte 0 903.1 -0.5 67
2019-04-13 05:00:00 5 4 Noroeste 9 Noroeste 0 903 -0.6 67
2019-04-13 04:00:00 4.8 5 Oeste 9 Noroeste 0 903.3 -0.3 69
2019-04-13 03:00:00 4.4 4 Oeste 9 Noroeste 0 903.6 0.3 68
2019-04-13 02:00:00 6.4 6 Noroeste 13 Norte 0 903.6 0.6 60
2019-04-13 01:00:00 5.6 4 Noroeste 13 Noroeste 0 903.6 0.7 64
2019-04-13 00:00:00 6.3 6 Norte 9 Norte 0 903.3 1 61
2019-04-12 23:00:00 7.1 2 Sudeste 7 Sudeste 0 903 0.8 54
2019-04-12 22:00:00 8.1 0 Calma 8 Sudeste 0 902.9 0.8 51
2019-04-12 21:00:00 12.1 4 Sudeste 14 Este 0 902.3 0.2 41
2019-04-12 20:00:00 13.6 9 Este 19 Este 0 902.2 0 38
2019-04-12 19:00:00 15.6 7 Este 18 Sudeste 0 902.1 -0.9 35
2019-04-12 18:00:00 15 6 Este 22 Nordeste 0 902.1 -1.2 35
2019-04-12 17:00:00 16 9 Sudeste 15 Sudeste 0 902.2 -1.4 35
2019-04-12 16:00:00 14.3 7 Sudeste 22 Sudeste 0 903 -1.2 38
2019-04-12 15:00:00 13.5 2 Sur 14 Oeste 0 903.3 -1.1 44
2019-04-12 14:00:00 11.6 5 Oeste 15 Nordeste 0 903.6 -0.6 51
2019-04-12 13:00:00 9.4 6 Nordeste 14 Nordeste 0 904.2 0 60
2019-04-12 12:00:00 8.5 8 Nordeste 15 Este 0 904.4 0.3 65
2019-04-12 11:00:00 6.6 10 Sudeste 19 Sudeste 0 904.2 0.4 77
2019-04-12 10:00:00 3.3 5 Sudeste 10 Sudeste 0 904.2 0.6 91
2019-04-12 09:00:00 0.6 0 Calma 5 Sur 0 904.1 0.2 96
2019-04-12 08:00:00 -3.3 0 Calma 3 Este 0 903.8 -0.4 96
2019-04-12 07:00:00 -3.4 0 Calma 3 Noroeste 0 903.6 -0.7 95
2019-04-12 06:00:00 -2.8 0 Calma 4 Oeste 0 903.9 -0.7 94
2019-04-12 05:00:00 -1.5 0 Calma 9 Oeste 0 904.2 -0.4 93
2019-04-12 04:00:00 0 3 Oeste 12 Oeste 0 904.3 -0.4 93
2019-04-12 03:00:00 0 0 Calma 12 Sur 0 904.6 -0.2 90
2019-04-12 02:00:00 0.8 6 Oeste 13 Oeste 0 904.6 0 90
2019-04-12 01:00:00 0.9 8 Oeste 11 Oeste 0 904.7 0.4 89
2019-04-12 00:00:00 1.1 3 Oeste 8 Oeste 0 904.8 1.1 83
2019-04-11 23:00:00 5.7 0 Calma 15 Nordeste 0 904.6 1.1 66
2019-04-11 22:00:00 7.6 7 Nordeste 18 Norte 0 904.3 0.8 52
2019-04-11 21:00:00 9.6 9 Nordeste 15 Nordeste 0 903.7 0.3 45
2019-04-11 20:00:00 10.5 10 Noroeste 18 Noroeste 0 903.5 0.1 44
2019-04-11 19:00:00 12.6 3 Norte 20 Norte 0 903.5 0 39
2019-04-11 18:00:00 11.9 5 Noroeste 15 Norte 0 903.4 -0.1 40
2019-04-11 17:00:00 10.7 8 Noroeste 18 Noroeste 0 903.4 -0.1 41
2019-04-11 16:00:00 11.4 7 Nordeste 19 Norte 0 903.5 -0.1 38
2019-04-11 15:00:00 11.3 9 Norte 34 Norte 0 903.5 -0.3 35
2019-04-11 14:00:00 11.7 8 Nordeste 22 Oeste 0 903.5 -0.1 37
2019-04-11 13:00:00 10.4 9 Norte 21 Norte 0 903.6 0.1 40
2019-04-11 12:00:00 9 2 Nordeste 16 Noroeste 0 903.8 0.5 41
2019-04-11 11:00:00 8.3 4 Norte 15 Norte 0 903.6 0.3 48
2019-04-11 10:00:00 6.9 6 Norte 17 Noroeste 0 903.5 0.5 54
2019-04-11 09:00:00 4.1 9 Oeste 13 Oeste 0 903.3 0.1 75
2019-04-11 08:00:00 -0.3 6 Oeste 9 Noroeste 0 903.3 0.1 87
2019-04-11 07:00:00 -0.5 5 Noroeste 11 Oeste 0 903 -0.1 86
2019-04-11 06:00:00 0.7 9 Noroeste 14 Oeste 0 903.2 -0.2 86
2019-04-11 05:00:00 0.4 7 Oeste 19 Oeste 0 903.2 -0.5 84
2019-04-11 04:00:00 2.1 13 Oeste 18 Oeste 0 903.1 -0.6 81
2019-04-11 03:00:00 1.7 8 Noroeste 21 Oeste 0 903.4 -0.1 82
2019-04-11 02:00:00 1.7 12 Oeste 17 Oeste 0 903.7 0.2 84
2019-04-11 01:00:00 2.3 6 Oeste 14 Oeste 0 903.7 0.7 81
2019-04-11 00:00:00 2.5 12 Oeste 15 Oeste 0 903.5 1.5 80
2019-04-10 23:00:00 4.2 9 Noroeste 18 Noroeste 0 903.5 2.3 71
2019-04-10 22:00:00 5.2 9 Noroeste 25 Noroeste 0 903 2.4 66
2019-04-10 21:00:00 6.9 14 Noroeste 29 Noroeste 0 902 2 57
2019-04-10 20:00:00 9.3 21 Noroeste 37 Noroeste 0 901.2 1.9 45
2019-04-10 19:00:00 10.7 14 Norte 39 Noroeste 0 900.6 1.3 41
2019-04-10 18:00:00 12.1 20 Noroeste 38 Noroeste 0 900 1 43
2019-04-10 17:00:00 11.7 21 Noroeste 42 Noroeste 0 899.3 0.5 45
2019-04-10 16:00:00 11.1 24 Noroeste 45 Noroeste 0 899.3 0.7 49
2019-04-10 15:00:00 10.8 26 Noroeste 45 Oeste 0 899 0.9 53
2019-04-10 14:00:00 9.5 25 Oeste 44 Oeste 0 898.8 1.3 61
2019-04-10 13:00:00 7.8 24 Oeste 51 Noroeste 0 898.6 1.2 66
2019-04-10 12:00:00 8 30 Noroeste 49 Oeste 0 898.1 1.1 66
2019-04-10 11:00:00 6.9 28 Noroeste 41 Oeste 0 897.5 0.9 70
2019-04-10 10:00:00 5.4 24 Oeste 37 Oeste 0 897.4 1 75
2019-04-10 09:00:00 4 18 Oeste 26 Oeste 0 897 0.6 82
2019-04-10 08:00:00 3.4 17 Oeste 27 Oeste 0.1 896.6 0.6 80
2019-04-10 07:00:00 3.6 12 Oeste 26 Oeste 0 896.4 0 75
2019-04-10 06:00:00 2.9 17 Oeste 30 Oeste 0 896.4 -0.2 72
2019-04-10 05:00:00 3.4 21 Oeste 32 Oeste 0 896 -0.8 75
2019-04-10 04:00:00 2.7 11 Noroeste 36 Oeste 0 896.4 -0.5 75
2019-04-10 03:00:00 3.8 26 Oeste 39 Oeste 0 896.6 -0.4 72
2019-04-10 02:00:00 4.1 22 Oeste 34 Oeste 0 896.8 -0.1 78
2019-04-10 01:00:00 3.1 7 Sudoeste 17 Sudoeste 0 896.9 0.4 87
2019-04-10 00:00:00 3.2 14 Oeste 28 Oeste 0 897 1 86
2019-04-09 23:00:00 4.1 22 Oeste 33 Oeste 0.1 896.9 1.3 80
2019-04-09 22:00:00 4.7 15 Oeste 25 Oeste 0 896.5 1.3 72
2019-04-09 21:00:00 5.7 17 Oeste 25 Oeste 0 896 0.9 65
2019-04-09 20:00:00 6.8 18 Oeste 29 Oeste 0 895.6 0.5 61
2019-04-09 19:00:00 8.2 19 Oeste 38 Oeste 0 895.2 -0.3 60
2019-04-09 18:00:00 8.8 19 Oeste 35 Sudoeste 0 895.1 -0.3 42
2019-04-09 17:00:00 9.5 24 Sudoeste 39 Sudoeste 0 895.1 -0.2 41
2019-04-09 16:00:00 9.1 21 Oeste 33 Oeste 0 895.5 0.2 54
2019-04-09 15:00:00 8 18 Oeste 39 Oeste 0 895.4 0.4 60
2019-04-09 14:00:00 7.5 22 Oeste 36 Oeste 0 895.3 0.8 62
2019-04-09 13:00:00 6 19 Oeste 34 Oeste 0 895.3 0.8 61
2019-04-09 12:00:00 4.6 20 Oeste 35 Sudoeste 0 895 0.9 71
2019-04-09 11:00:00 4.1 11 Sudoeste 23 Sudoeste 0 894.5 0.7 87
2019-04-09 10:00:00 3 2 Sur 6 Oeste 0.7 894.5 0.6 94
2019-04-09 09:00:00 3 3 Norte 5 Noroeste 0.5 894.1 -0.2 93
2019-04-09 08:00:00 2.6 0 Calma 4 Noroeste 0 893.8 -0.8 93
2019-04-09 07:00:00 2.9 0 Calma 8 Nordeste 0.1 893.9 -0.9 93
2019-04-09 06:00:00 3.3 6 Norte 9 Norte 0.4 894.3 -1 92
2019-04-09 05:00:00 3.4 3 Nordeste 9 Nordeste 0 894.6 -0.8 91
2019-04-09 04:00:00 3.7 8 Norte 13 Nordeste 0.1 894.8 -1 87
2019-04-09 03:00:00 3.8 4 Norte 14 Nordeste 0 895.3 -0.6 80
2019-04-09 02:00:00 3.6 12 Nordeste 15 Nordeste 0 895.4 -0.7 72
2019-04-09 01:00:00 4.5 0 Calma 12 Sudeste 0 895.8 -0.2 66
2019-04-09 00:00:00 3.8 7 Este 13 Nordeste 0 895.9 0.3 66
2019-04-08 23:00:00 5.1 5 Este 13 Sudeste 0 896.1 0.4 61
2019-04-08 22:00:00 5.1 3 Norte 7 Nordeste 0 896 0.3 58
2019-04-08 21:00:00 7.1 5 Sudeste 18 Sur 0 895.6 -0.1 51
2019-04-08 20:00:00 8.7 12 Sur 35 Sur 0 895.7 0 44
2019-04-08 19:00:00 9.1 19 Sur 40 Sur 0 895.7 -0.3 42
2019-04-08 18:00:00 9.7 17 Sur 35 Sudoeste 0 895.7 -0.2 36
2019-04-08 17:00:00 11.3 15 Sudoeste 31 Sudoeste 0 895.7 -0.3 38
2019-04-08 16:00:00 10.1 20 Sudoeste 32 Sudoeste 0 896 0 42
2019-04-08 15:00:00 10.3 12 Sudoeste 23 Sudoeste 0 895.9 -0.2 38
2019-04-08 14:00:00 10.3 11 Sudoeste 26 Sudoeste 0 896 0.2 38
2019-04-08 13:00:00 8.6 11 Oeste 35 Oeste 0 896 0.4 44
2019-04-08 12:00:00 8.1 10 Sudoeste 19 Sudoeste 0 896.1 0.8 52
2019-04-08 11:00:00 6.1 8 Sudeste 15 Este 0 895.8 1.2 77
2019-04-08 10:00:00 5.3 0 Calma 8 Sur 0 895.6 1.2 85
2019-04-08 09:00:00 3.5 2 Oeste 10 Oeste 0 895.3 1.2 99
2019-04-08 08:00:00 2.3 4 Sudoeste 13 Noroeste 0 894.6 0.8 99
2019-04-08 07:00:00 2.6 0 Calma 6 Norte 0.1 894.4 0.6 99
2019-04-08 06:00:00 2.6 2 Norte 10 Nordeste 0 894.1 0.1 99
2019-04-08 05:00:00 2.9 4 Nordeste 10 Norte 0 893.8 -0.4 99
2019-04-08 04:00:00 3.4 4 Nordeste 9 Norte 0.8 893.8 -0.5 99
2019-04-08 03:00:00 3.8 3 Norte 5 Norte 0.5 894 -0.6 99
2019-04-08 02:00:00 3.6 0 Calma 7 Norte 1 894.2 -0.7 99
2019-04-08 01:00:00 3.4 4 Norte 8 Norte 0.8 894.3 -0.5 99
2019-04-08 00:00:00 3.4 3 Nordeste 8 Este 0.8 894.6 -0.1 99
2019-04-07 23:00:00 3.3 7 Este 19 Este 0.5 894.9 0.4 99
2019-04-07 22:00:00 3.1 13 Sudeste 20 Sudeste 0.5 894.8 0.3 99
2019-04-07 21:00:00 3.2 14 Este 21 Sudeste 0.2 894.7 0.1 98
2019-04-07 20:00:00 3.7 14 Sudeste 23 Sudeste 0.2 894.5 0.1 96
2019-04-07 19:00:00 4.3 12 Sudeste 19 Sudeste 0.4 894.5 0.9 92
2019-04-07 18:00:00 4.8 10 Sur 18 Sudoeste 0.5 894.6 1.4 84
2019-04-07 17:00:00 5.2 10 Sudoeste 36 Sudoeste 0 894.4 0.9 74
2019-04-07 16:00:00 8 17 Sur 29 Sur 0 893.6 -0.1 51
2019-04-07 15:00:00 10.6 12 Sur 28 Este 0 893.2 -0.4 39
2019-04-07 14:00:00 9.4 13 Sudeste 26 Este 0 893.5 0.2 44
2019-04-07 13:00:00 7.5 8 Sudeste 20 Nordeste 0 893.7 0.6 45
2019-04-07 12:00:00 7.9 8 Este 19 Este 0 893.6 1.2 52
2019-04-07 11:00:00 6.1 5 Norte 21 Oeste 0 893.3 1.6 59
2019-04-07 10:00:00 3.5 14 Oeste 24 Oeste 0 893.1 2.1 69
2019-04-07 09:00:00 1.7 3 Oeste 17 Oeste 0 892.4 1.9 78
2019-04-07 08:00:00 0.3 4 Noroeste 17 Norte 0 891.7 1.7 77
2019-04-07 07:00:00 -0.8 2 Nordeste 11 Norte 0 891 1.3 80
2019-04-07 06:00:00 -0.5 3 Este 20 Oeste 0 890.5 0.9 80
2019-04-07 05:00:00 0.2 10 Oeste 21 Oeste 0 890 0.6 82
2019-04-07 04:00:00 0.7 16 Oeste 27 Oeste 0 889.7 0.5 83
2019-04-07 03:00:00 0.5 6 Sudoeste 20 Sudoeste 0 889.6 0.5 81
2019-04-07 02:00:00 0.5 10 Oeste 22 Sudoeste 0 889.4 0.7 84
2019-04-07 01:00:00 1.2 7 Sudoeste 23 Sudoeste 0 889.2 1.1 87
2019-04-07 00:00:00 2.4 6 Sudoeste 15 Este 0 889.1 1.7 77
2019-04-06 23:00:00 1 6 Este 12 Nordeste 0 888.7 2.4 78
2019-04-06 22:00:00 1.4 5 Sudeste 27 Sudoeste 0 888.1 3.8 76
2019-04-06 21:00:00 2.4 29 Sudoeste 47 Sudoeste 0 887.4 2.8 72
2019-04-06 20:00:00 3.4 31 Sudoeste 62 Sudoeste 0 886.3 2 65
2019-04-06 19:00:00 3.9 45 Sudoeste 60 Sudoeste 0 884.3 0.5 63
2019-04-06 18:00:00 4.2 35 Oeste 64 Oeste 0.1 884.6 0.9 78
2019-04-06 17:00:00 4.2 19 Oeste 55 Oeste 0.1 884.3 1.4 84
2019-04-06 16:00:00 6.4 36 Oeste 54 Oeste 0 883.8 1 58
2019-04-06 15:00:00 5.2 26 Oeste 44 Oeste 0 883.7 1.1 60
2019-04-06 14:00:00 6.2 15 Oeste 40 Oeste 0 882.9 0.5 57
2019-04-06 13:00:00 6.3 18 Oeste 29 Oeste 0 882.8 0.8 66
2019-04-06 12:00:00 4.6 5 Sudoeste 22 Sudoeste 0 882.6 0.3 66
2019-04-06 11:00:00 3.5 11 Sudoeste 22 Este 0 882.4 0 69
2019-04-06 10:00:00 2.4 5 Sudeste 27 Este 0 882 -0.4 78
2019-04-06 09:00:00 1.4 0 Calma 14 Sudeste 0 882.3 -0.7 92
2019-04-06 08:00:00 -0.1 0 Calma 14 Sur 0 882.4 -1 96
2019-04-06 07:00:00 0.3 6 Este 11 Este 0 882.4 -1.4 94
2019-04-06 06:00:00 0.8 7 Sudeste 19 Sudeste 0 883 -1.3 88
2019-04-06 05:00:00 -0.1 2 Este 6 Sudeste 0 883.4 -1.1 88
2019-04-06 04:00:00 0 0 Calma 8 Sur 0 883.8 -1.2 86
2019-04-06 03:00:00 0.2 4 Este 12 Sur 0 884.3 -0.6 86
2019-04-06 02:00:00 -0.3 3 Este 14 Oeste 0 884.5 -0.5 84
2019-04-06 01:00:00 -0.2 8 Sudoeste 14 Sudoeste 0 885 0.8 88
2019-04-06 00:00:00 -0.3 8 Oeste 16 Oeste 0 884.9 1.2 84
2019-04-05 23:00:00 0.5 7 Oeste 13 Oeste 0 885 1.7 78
2019-04-05 22:00:00 1.7 6 Noroeste 20 Noroeste 0 884.2 1.7 69
2019-04-05 21:00:00 2.5 9 Oeste 28 Noroeste 0 883.7 1.6 68
2019-04-05 20:00:00 5.2 11 Oeste 28 Sudoeste 0 883.3 1.6 53
2019-04-05 19:00:00 5.9 19 Oeste 28 Oeste 0 882.5 0.9 48
2019-04-05 18:00:00 6.2 9 Sudoeste 22 Oeste 0 882.1 0.2 45
2019-04-05 17:00:00 7.4 10 Sur 31 Sudoeste 0 881.7 -0.1 42
2019-04-05 16:00:00 8.7 13 Sudoeste 35 Sudoeste 0 881.6 -0.6 34
2019-04-05 15:00:00 6.7 9 Oeste 21 Oeste 0 881.9 -0.2 38
2019-04-05 14:00:00 7.2 5 Sur 13 Sur 0 881.8 0.1 44
2019-04-05 13:00:00 5 7 Norte 18 Este 0 882.2 0.9 52
2019-04-05 12:00:00 4.5 6 Nordeste 18 Nordeste 0 882.1 0.9 68
2019-04-05 11:00:00 3.6 5 Nordeste 14 Nordeste 0 881.7 1.1 87
2019-04-05 10:00:00 1.6 7 Este 16 Este 0.1 881.3 1.1 97
2019-04-05 09:00:00 0 7 Nordeste 19 Nordeste 0 881.2 0.7 99
2019-04-05 08:00:00 -0.1 7 Sudoeste 10 Norte 0 880.6 0.4 98
2019-04-05 07:00:00 0.6 4 Norte 14 Norte 0.1 880.2 -0.5 98
2019-04-05 06:00:00 1.1 5 Oeste 10 Norte 0 880.5 -0.5 98
2019-04-05 05:00:00 0.8 3 Nordeste 9 Norte 0 880.2 -0.7 98
2019-04-05 04:00:00 0.9 3 Norte 19 Este 0 880.7 -1.1 98
2019-04-05 03:00:00 1.1 10 Este 33 Sur 0.1 881 -1.3 93
2019-04-05 02:00:00 2 14 Sur 32 Sur 0.1 880.9 -1.8 90
2019-04-05 01:00:00 0.5 14 Sudeste 26 Sudeste 0.1 881.8 -1.2 98
2019-04-05 00:00:00 1.7 3 Sudeste 27 Este 0 882.3 -1.3 95
2019-04-04 23:00:00 1.8 17 Este 33 Sudeste 0 882.7 -1.6 92
2019-04-04 22:00:00 1.7 15 Sur 23 Sudeste 0 883 -1.6 92
2019-04-04 21:00:00 2.4 10 Sur 17 Sur 0 883.6 -1.2 87
2019-04-04 20:00:00 3.1 9 Sudoeste 24 Sudoeste 0 884.3 -0.7 85
2019-04-04 19:00:00 4.1 12 Sudoeste 24 Oeste 0 884.6 -0.6 78
2019-04-04 18:00:00 5.2 14 Sudoeste 28 Oeste 0 884.8 -1 63
2019-04-04 17:00:00 6.9 13 Sudoeste 24 Oeste 0 885 -1.7 50
2019-04-04 16:00:00 7.9 4 Noroeste 24 Sudoeste 0 885.2 -2.3 42
2019-04-04 15:00:00 8 4 Este 14 Este 0 885.8 -2.2 41
2019-04-04 14:00:00 6.9 8 Sur 21 Sudeste 0 886.7 -1.3 46
2019-04-04 13:00:00 5.5 0 Calma 19 Noroeste 0 887.5 -0.6 53
2019-04-04 12:00:00 3.9 10 Oeste 34 Noroeste 0 888 -0.4 60
2019-04-04 11:00:00 3.5 22 Noroeste 33 Noroeste 0 888 -0.1 62
2019-04-04 10:00:00 2.1 13 Noroeste 25 Noroeste 0 888.1 0 72
2019-04-04 09:00:00 -0.6 0 Calma 13 Oeste 0 888.4 0.4 81
2019-04-04 08:00:00 -0.8 0 Calma 10 Noroeste 0 888.1 -0.9 80
2019-04-04 07:00:00 -0.9 0 Calma 34 Noroeste 0 888.1 -1.3 79
2019-04-04 06:00:00 -0.5 24 Noroeste 34 Noroeste 0 888 -2.2 80
2019-04-04 05:00:00 -0.6 15 Noroeste 28 Noroeste 0 889 -1.7 81
2019-04-04 04:00:00 -1.3 18 Noroeste 30 Oeste 0 889.4 -2 81
2019-04-04 03:00:00 -0.8 18 Noroeste 42 Noroeste 0 890.2 -1.8 80
2019-04-04 02:00:00 -0.5 24 Noroeste 36 Noroeste 0 890.7 -1.6 80
2019-04-04 01:00:00 -0.3 15 Noroeste 31 Noroeste 0 891.4 -0.9 84
2019-04-04 00:00:00 -0.3 15 Noroeste 24 Noroeste 0 892 0 84
2019-04-03 23:00:00 -0.1 16 Noroeste 22 Noroeste 0 892.3 0.5 81
2019-04-03 22:00:00 0.2 10 Noroeste 26 Noroeste 0 892.3 0.4 75
2019-04-03 21:00:00 1.5 12 Noroeste 37 Noroeste 0 892 0.6 72
2019-04-03 20:00:00 2.6 25 Noroeste 39 Noroeste 0 891.8 0 63
2019-04-03 19:00:00 3.4 20 Noroeste 46 Noroeste 0 891.9 -0.2 58
2019-04-03 18:00:00 5.6 26 Noroeste 42 Noroeste 0 891.4 -0.9 54
2019-04-03 17:00:00 4.6 23 Noroeste 41 Noroeste 0.1 891.8 -0.9 53
2019-04-03 16:00:00 5.2 27 Noroeste 42 Noroeste 0 892.1 -0.9 60
2019-04-03 15:00:00 5.4 18 Noroeste 39 Noroeste 0 892.3 -1.3 66
2019-04-03 14:00:00 5.6 26 Noroeste 49 Noroeste 0 892.7 -1.1 63
2019-04-03 13:00:00 5.8 22 Noroeste 45 Oeste 0 893 -0.6 58
2019-04-03 12:00:00 4.7 30 Noroeste 44 Noroeste 0 893.6 -0.5 63
2019-04-03 11:00:00 3.5 28 Noroeste 41 Noroeste 0 893.8 -0.3 68
2019-04-03 10:00:00 3.4 18 Noroeste 36 Oeste 0 893.6 -0.6 68
2019-04-03 09:00:00 2.2 21 Noroeste 42 Noroeste 0 894.1 -0.9 75
2019-04-03 08:00:00 1.2 21 Noroeste 43 Oeste 0 894.1 -1.5 78
2019-04-03 07:00:00 1.5 19 Noroeste 42 Noroeste 0 894.2 -1.9 78
2019-04-03 06:00:00 2 12 Noroeste 25 Noroeste 0 895 -1.8 76
2019-04-03 05:00:00 2.8 13 Noroeste 27 Noroeste 0 895.6 -1.8 77
2019-04-03 04:00:00 3.3 11 Noroeste 26 Noroeste 0 896.1 -1.8 77
2019-04-03 03:00:00 4.1 4 Oeste 24 Noroeste 0 896.8 -1.1 77
2019-04-03 02:00:00 4.4 14 Noroeste 26 Noroeste 0 897.4 -0.5 76
2019-04-03 01:00:00 5.2 2 Noroeste 38 Noroeste 0 897.9 0.4 75
2019-04-03 00:00:00 6.1 24 Noroeste 36 Noroeste 0 897.9 0.3 73
2019-04-02 23:00:00 6.5 18 Noroeste 40 Noroeste 0 897.9 0.2 69
2019-04-02 22:00:00 7.6 24 Noroeste 42 Noroeste 0 897.5 -0.4 60
2019-04-02 21:00:00 8.6 21 Noroeste 41 Noroeste 0 897.6 -0.2 52
2019-04-02 20:00:00 10.6 27 Noroeste 40 Noroeste 0 897.7 0 46
2019-04-02 19:00:00 12.7 28 Oeste 69 Noroeste 0 897.9 -0.4 42
2019-04-02 18:00:00 13.8 26 Noroeste 42 Noroeste 0 897.8 -1.2 36
2019-04-02 17:00:00 14.8 20 Noroeste 33 Noroeste 0 897.7 -1.6 27
2019-04-02 16:00:00 15.1 17 Noroeste 39 Noroeste 0 898.3 -1.5 27
2019-04-02 15:00:00 13.9 15 Oeste 30 Noroeste 0 899 -1.1 33
2019-04-02 14:00:00 14 3 Sudeste 14 Norte 0 899.3 -0.7 42
2019-04-02 13:00:00 13 2 Sudeste 15 Nordeste 0 899.8 0 45
2019-04-02 12:00:00 12.8 4 Este 14 Este 0 900.1 0.4 47
2019-04-02 11:00:00 11.7 3 Nordeste 9 Nordeste 0 900 0.5 51
2019-04-02 10:00:00 9.6 6 Oeste 12 Sudoeste 0 899.8 0.2 63
2019-04-02 09:00:00 4.8 9 Oeste 13 Oeste 0 899.7 0.1 87
2019-04-02 08:00:00 1.8 8 Oeste 12 Oeste 0 899.5 -0.1 90
2019-04-02 07:00:00 1.7 9 Oeste 12 Oeste 0 899.6 -0.1 90
2019-04-02 06:00:00 1.5 8 Oeste 12 Oeste 0 899.6 -0.5 90
2019-04-02 05:00:00 1.7 6 Oeste 12 Oeste 0 899.6 -0.7 87
2019-04-02 04:00:00 2.9 4 Noroeste 8 Noroeste 0 899.7 -0.5 85
2019-04-02 03:00:00 2.8 4 Norte 7 Norte 0 900.1 0.3 81
2019-04-02 02:00:00 4.2 4 Noroeste 6 Oeste 0 900.3 0.8 74
2019-04-02 01:00:00 6.1 0 Calma 4 Oeste 0 900.2 1.5 67
2019-04-02 00:00:00 6.8 2 Oeste 10 Noroeste 0 899.8 1.8 63
2019-04-01 23:00:00 9.5 6 Norte 19 Norte 0 899.5 1.8 53
2019-04-01 22:00:00 9.5 9 Oeste 14 Oeste 0 898.7 1.3 56
2019-04-01 21:00:00 10 5 Oeste 17 Sudoeste 0 898 1 50
2019-04-01 20:00:00 12.9 9 Sur 16 Sur 0 897.7 0.7 41
2019-04-01 19:00:00 13.7 9 Sudeste 23 Sudeste 0 897.4 0.1 37
2019-04-01 18:00:00 15.2 14 Este 28 Este 0 897 -0.6 35
2019-04-01 17:00:00 15.5 16 Sudeste 25 Sudeste 0 897 -1 38
2019-04-01 16:00:00 14.2 14 Sudeste 22 Este 0 897.3 -1.1 41
2019-04-01 15:00:00 13.1 10 Sudeste 17 Noroeste 0 897.6 -1.2 46
2019-04-01 14:00:00 15.3 4 Sudeste 25 Sudeste 0 898 -0.8 42
2019-04-01 13:00:00 13 6 Este 21 Este 0 898.4 -0.3 50
2019-04-01 12:00:00 11.3 7 Este 17 Sudeste 0 898.8 0.2 55
2019-04-01 11:00:00 9.9 6 Sudeste 12 Este 0 898.8 0.6 65
2019-04-01 10:00:00 7.2 0 Calma 4 Oeste 0 898.7 0.6 87
2019-04-01 09:00:00 1.7 2 Oeste 6 Oeste 0 898.6 0.5 99
2019-04-01 08:00:00 -0.3 5 Oeste 8 Oeste 0 898.2 -0.1 99
2019-04-01 07:00:00 0.3 0 Calma 9 Oeste 0 898.1 -0.4 97
2019-04-01 06:00:00 1.2 6 Oeste 11 Norte 0 898.1 -0.7 95
2019-04-01 05:00:00 2.4 5 Noroeste 12 Norte 0 898.3 -0.5 96
2019-04-01 04:00:00 1.8 3 Noroeste 5 Norte 0 898.5 -0.2 94
2019-04-01 03:00:00 2.3 4 Noroeste 5 Noroeste 0 898.8 0.4 91
2019-04-01 02:00:00 3.2 3 Oeste 7 Nordeste 0 898.8 0.8 82
2019-04-01 01:00:00 7.5 3 Nordeste 18 Nordeste 0 898.7 1.1 63
2019-04-01 00:00:00 9.3 10 Nordeste 19 Nordeste 0 898.4 1.4 54
2019-03-31 23:00:00 10.6 7 Norte 19 Norte 0 898 1.5 49
2019-03-31 22:00:00 11.3 10 Norte 22 Nordeste 0 897.6 1 47
2019-03-31 21:00:00 12.1 12 Nordeste 21 Norte 0 897 0.4 42
2019-03-31 20:00:00 13.9 4 Nordeste 19 Nordeste 0 896.5 -0.3 36
2019-03-31 19:00:00 15.5 5 Nordeste 25 Nordeste 0 896.6 -0.8 35
2019-03-31 18:00:00 14.8 9 Este 21 Nordeste 0 896.6 -1.2 34
2019-03-31 17:00:00 16.6 10 Sudeste 24 Sudeste 0 896.8 -1.5 34
2019-03-31 16:00:00 14.7 7 Nordeste 23 Este 0 897.4 -1.6 36
2019-03-31 15:00:00 16.2 14 Este 26 Este 0 897.8 -1.6 35
2019-03-31 14:00:00 15.1 11 Nordeste 23 Nordeste 0 898.3 -1.2 41
2019-03-31 13:00:00 13.9 7 Este 18 Este 0 899 -0.4 44
2019-03-31 12:00:00 12.3 4 Nordeste 15 Nordeste 0 899.4 0 47
2019-03-31 11:00:00 11 6 Nordeste 14 Nordeste 0 899.5 0.2 48
2019-03-31 10:00:00 9.3 3 Norte 8 Norte 0 899.4 0 57
2019-03-31 09:00:00 2.6 6 Oeste 9 Oeste 0 899.4 -0.3 85
2019-03-31 08:00:00 2.4 5 Noroeste 9 Noroeste 0 899.3 -0.9 82
2019-03-31 07:00:00 1.3 5 Noroeste 9 Noroeste 0 899.4 -1.2 87
2019-03-31 06:00:00 2.9 6 Noroeste 9 Norte 0 899.7 -1.2 84
2019-03-31 05:00:00 2.8 4 Norte 7 Norte 0 900.2 -1 84
2019-03-31 03:00:00 4.8 5 Noroeste 11 Oeste 0 900.9 -0.6 72
2019-03-31 01:00:00 7.5 3 Noroeste 10 Nordeste 0 901.2 -0.4 63
2019-03-31 00:00:00 8.7 7 Oeste 11 Oeste 0 901.4 0 61
2019-03-30 23:00:00 9.1 5 Oeste 13 Norte 0 901.5 0.6 60
2019-03-30 22:00:00 9.3 8 Norte 14 Norte 0 901.6 0.7 58
2019-03-30 21:00:00 8.8 0 Calma 16 Oeste 0 901.4 0.6 57
2019-03-30 20:00:00 9.7 12 Oeste 20 Oeste 0 900.9 0 55
2019-03-30 19:00:00 10.6 12 Oeste 21 Sudoeste 0 900.9 -0.1 55
2019-03-30 18:00:00 12.9 7 Noroeste 21 Oeste 0 900.8 -0.8 47
2019-03-30 17:00:00 13.7 13 Noroeste 19 Noroeste 0 900.9 -1.2 46
2019-03-30 16:00:00 14.9 2 Oeste 23 Sur 0 901 -1.8 42
2019-03-30 15:00:00 15.2 5 Norte 16 Este 0 901.6 -1.8 42
2019-03-30 14:00:00 15.7 7 Nordeste 18 Nordeste 0 902.1 -1.7 45
2019-03-30 13:00:00 14.1 5 Nordeste 21 Nordeste 0 902.8 -1.2 46
2019-03-30 12:00:00 12.7 7 Nordeste 16 Nordeste 0 903.4 -0.5 48
2019-03-30 11:00:00 10.9 6 Norte 18 Nordeste 0 903.8 0 53
2019-03-30 10:00:00 8.7 12 Norte 24 Norte 0 904 0.4 57
2019-03-30 09:00:00 7.1 7 Noroeste 12 Norte 0 903.9 0.8 60
2019-03-30 08:00:00 5.5 5 Noroeste 15 Norte 0 903.8 0.8 67
2019-03-30 07:00:00 5.1 6 Norte 13 Norte 0 903.6 0.4 71
2019-03-30 06:00:00 5.9 6 Nordeste 9 Nordeste 0 903.1 -0.5 71
2019-03-30 05:00:00 6.7 5 Oeste 9 Oeste 0 903 -0.3 69
2019-03-30 04:00:00 6.8 5 Noroeste 8 Oeste 0 903.2 -0.4 66
2019-03-30 03:00:00 7.1 2 Sudeste 17 Este 0 903.6 -0.1 62
2019-03-30 02:00:00 7.3 0 Calma 7 Oeste 0 903.3 -0.7 62
2019-03-30 01:00:00 8.3 0 Calma 13 Oeste 0 903.6 -0.2 59
2019-03-30 00:00:00 8.3 10 Oeste 13 Oeste 0 903.7 0.1 53
2019-03-29 23:00:00 8.6 3 Oeste 14 Sudoeste 0 904 0.8 46
2019-03-29 22:00:00 10.6 8 Sudoeste 18 Sudoeste 0 903.8 0.7 40
2019-03-29 21:00:00 12.3 9 Sudoeste 21 Sudoeste 0 903.6 0.7 38
2019-03-29 20:00:00 14.1 12 Sur 20 Sur 0 903.2 0.3 37
2019-03-29 19:00:00 14.8 13 Sudeste 24 Sudeste 0 903.1 -0.2 34
2019-03-29 18:00:00 15.8 12 Sudeste 24 Sudeste 0 902.9 -1.1 33
2019-03-29 17:00:00 17.4 15 Sudeste 31 Sudeste 0 902.9 -1.8 31
2019-03-29 16:00:00 16.7 12 Este 31 Este 0 903.3 -2.2 33
2019-03-29 15:00:00 17.2 10 Este 30 Este 0 904 -2 35
2019-03-29 14:00:00 16.1 8 Nordeste 22 Este 0 904.7 -1.8 40
2019-03-29 13:00:00 14.7 7 Nordeste 17 Nordeste 0 905.5 -1.2 42
2019-03-29 12:00:00 12.8 4 Norte 15 Norte 0 906 -0.8 46
2019-03-29 11:00:00 11.4 6 Norte 15 Norte 0 906.5 -0.6 49
2019-03-29 10:00:00 9.9 3 Noroeste 9 Norte 0 906.7 -0.5 52
2019-03-29 09:00:00 7.8 0 Calma 3 Noroeste 0 906.8 -0.4 61
2019-03-29 08:00:00 0.4 0 Calma 6 Oeste 0 907.1 0 80
2019-03-29 07:00:00 -0.8 5 Oeste 8 Oeste 0 907.2 -0.2 77
2019-03-29 06:00:00 0.3 4 Oeste 9 Oeste 0 907.2 -0.8 73
2019-03-29 05:00:00 1.5 8 Sudoeste 12 Sudoeste 0 907.1 -1.2 70
2019-03-29 04:00:00 2.5 8 Sudoeste 15 Sudoeste 0 907.4 -1 69
2019-03-29 03:00:00 1.9 10 Sudoeste 14 Sudoeste 0 908 -0.9 69
2019-03-29 02:00:00 3.8 5 Sudoeste 13 Sudoeste 0 908.3 -0.7 68
2019-03-29 01:00:00 5.3 9 Sudoeste 18 Sudoeste 0 908.4 -0.5 68
2019-03-29 00:00:00 2.6 10 Sudoeste 14 Sudoeste 0 908.9 0.3 76
2019-03-28 23:00:00 2.9 4 Sudoeste 7 Oeste 0 909 0.9 70
2019-03-28 22:00:00 6.6 0 Calma 9 Nordeste 0 908.9 0.9 57
2019-03-28 21:00:00 5.3 0 Calma 3 Nordeste 0 908.6 0.7 51
2019-03-28 20:00:00 11.7 3 Nordeste 18 Nordeste 0 908.1 0.1 33
2019-03-28 19:00:00 15.7 11 Este 23 Este 0 908 -0.5 28
2019-03-28 18:00:00 16.6 15 Nordeste 30 Nordeste 0 907.9 -1.2 26
2019-03-28 17:00:00 17.3 14 Nordeste 41 Nordeste 0 908 -1.8 25
2019-03-28 16:00:00 17.2 15 Norte 36 Nordeste 0 908.5 -1.5 25
2019-03-28 15:00:00 16.8 8 Nordeste 32 Sudeste 0 909.1 -1.4 26
2019-03-28 14:00:00 15.2 13 Este 32 Este 0 909.8 -1.1 27
2019-03-28 13:00:00 14.7 15 Este 32 Sudeste 0 910 -0.9 28
2019-03-28 12:00:00 13.8 18 Sudeste 30 Este 0 910.5 -0.3 30
2019-03-28 11:00:00 12.7 13 Sudeste 26 Sudeste 0 910.9 -0.1 32
2019-03-28 10:00:00 10.5 0 Calma 9 Sur 0 910.9 0.2 36
2019-03-28 09:00:00 6.8 5 Oeste 10 Noroeste 0 910.8 0.1 42
2019-03-28 08:00:00 -0.4 4 Noroeste 10 Noroeste 0 911 0.5 69
2019-03-28 07:00:00 -2.2 8 Noroeste 12 Noroeste 0 910.7 0.3 70
2019-03-28 06:00:00 -1.2 7 Noroeste 9 Noroeste 0 910.7 0.2 72
2019-03-28 05:00:00 -2.4 4 Norte 5 Norte 0 910.5 0.1 73
2019-03-28 04:00:00 -1 0 Calma 5 Norte 0 910.4 0.1 69
2019-03-28 03:00:00 0.3 3 Nordeste 6 Nordeste 0 910.5 0.2 68
2019-03-28 02:00:00 0.6 0 Calma 8 Norte 0 910.4 0.3 66
2019-03-28 01:00:00 2.1 6 Noroeste 10 Norte 0 910.3 0.5 58
2019-03-28 00:00:00 3.2 5 Noroeste 12 Norte 0 910.3 0.9 54
2019-03-27 23:00:00 2.8 9 Noroeste 12 Norte 0 910.1 1.3 51
2019-03-27 22:00:00 4.2 5 Noroeste 8 Noroeste 0 909.8 1.6 45
2019-03-27 21:00:00 6 0 Calma 13 Sudeste 0 909.4 1.5 33
2019-03-27 20:00:00 11.7 8 Sudeste 15 Sudeste 0 908.8 1 24
2019-03-27 19:00:00 16.4 8 Sudeste 26 Sudeste 0 908.2 0.3 20
2019-03-27 18:00:00 17.4 17 Sudeste 24 Sudeste 0 907.9 -0.3 19
2019-03-27 17:00:00 18 13 Sur 32 Sur 0 907.8 -0.7 19
2019-03-27 16:00:00 18.1 14 Sudeste 28 Sudeste 0 907.9 -1.1 20
2019-03-27 15:00:00 17.8 12 Sudeste 30 Sudeste 0 908.2 -1.1 20
2019-03-27 14:00:00 16.9 12 Sudeste 28 Sur 0 908.5 -0.9 19
2019-03-27 13:00:00 15.2 11 Sur 31 Sur 0 909 0 18
2019-03-27 12:00:00 14.4 12 Sudeste 35 Sur 0 909.3 0.5 17
2019-03-27 11:00:00 13.7 13 Sur 29 Sur 0 909.4 1 17
2019-03-27 10:00:00 11.8 16 Sur 35 Sur 0 909 1.2 19
2019-03-27 09:00:00 9.9 6 Sur 16 Sur 0 908.8 1.6 22
2019-03-27 08:00:00 3.9 4 Norte 13 Norte 0 908.4 1.2 27
2019-03-27 07:00:00 1.7 8 Norte 19 Noroeste 0 907.8 0.6 28
2019-03-27 06:00:00 0.2 10 Norte 15 Norte 0 907.2 -0.4 29
2019-03-27 05:00:00 2.2 8 Norte 17 Norte 0 907.2 -0.5 29
2019-03-27 04:00:00 0.1 7 Norte 16 Noroeste 0 907.2 -0.7 31
2019-03-27 03:00:00 1.2 7 Norte 17 Norte 0 907.6 -0.3 32
2019-03-27 02:00:00 -1.4 10 Norte 34 Norte 0 907.7 0.2 34
2019-03-27 01:00:00 0.7 4 Nordeste 12 Norte 0 907.9 0.8 32
2019-03-27 00:00:00 1.4 0 Calma 13 Norte 0 907.9 1.1 29
2019-03-26 23:00:00 2.9 4 Nordeste 14 Norte 0 907.5 1.6 26
2019-03-26 22:00:00 4.1 4 Noroeste 21 Sur 0 907.1 1.7 22
2019-03-26 21:00:00 7.2 4 Noroeste 29 Sur 0 906.8 1.8 22
2019-03-26 20:00:00 9.6 17 Sur 32 Sur 0 905.9 1.1 21
2019-03-26 19:00:00 13 18 Sur 36 Sur 0 905.4 0.5 20
2019-03-26 18:00:00 15.4 17 Oeste 44 Noroeste 0 905 -0.3 18
2019-03-26 17:00:00 15.8 24 Noroeste 44 Oeste 0 904.8 -0.7 18
2019-03-26 16:00:00 15.9 24 Noroeste 47 Norte 0 904.9 -0.8 19
2019-03-26 15:00:00 15.3 24 Noroeste 51 Oeste 0 905.3 -1.1 19
2019-03-26 14:00:00 14.4 25 Oeste 38 Oeste 0 905.5 -1.3 21
2019-03-26 13:00:00 13.7 21 Oeste 37 Noroeste 0 905.7 -0.7 25
2019-03-26 12:00:00 10.3 16 Nordeste 30 Nordeste 0 906.4 0.2 35
2019-03-26 11:00:00 8.7 12 Este 28 Este 0 906.8 0.9 43
2019-03-26 10:00:00 6.2 5 Sur 15 Sur 0 906.4 0.8 63
2019-03-26 09:00:00 4.2 4 Sur 12 Oeste 0 906.2 0.4 75
2019-03-26 08:00:00 -1.9 5 Oeste 10 Noroeste 0 905.9 -0.1 90
2019-03-26 07:00:00 -2.2 9 Oeste 14 Oeste 0 905.6 -0.6 91
2019-03-26 06:00:00 -2.3 10 Oeste 13 Oeste 0 905.8 -0.7 92
2019-03-26 05:00:00 -2.8 7 Oeste 10 Oeste 0 906 -0.6 88
2019-03-26 04:00:00 -0.4 5 Sur 9 Sudeste 0 906.2 -0.6 86
2019-03-26 03:00:00 -1.5 0 Calma 8 Noroeste 0 906.5 -0.3 85
2019-03-26 02:00:00 -0.6 5 Noroeste 9 Noroeste 0 906.6 -0.6 83
2019-03-26 01:00:00 1.4 3 Noroeste 11 Noroeste 0 906.8 -0.1 75
2019-03-26 00:00:00 2.7 11 Noroeste 15 Noroeste 0 906.8 0.2 76
2019-03-25 23:00:00 1.5 9 Noroeste 14 Noroeste 0 907.2 0.8 68
2019-03-25 22:00:00 4.2 0 Calma 7 Noroeste 0 906.9 1 50
2019-03-25 21:00:00 6.7 5 Sudeste 10 Sudeste 0 906.6 1.2 41
2019-03-25 20:00:00 9.7 8 Sudeste 32 Sudeste 0 906.4 0.7 36
2019-03-25 19:00:00 12.8 19 Sudeste 33 Sudeste 0 905.9 -0.3 39
2019-03-25 18:00:00 15.5 15 Sudeste 26 Sudeste 0 905.4 -1.2 36
2019-03-25 17:00:00 16.1 14 Sudeste 27 Sudeste 0 905.7 -1.5 33
2019-03-25 16:00:00 16.5 11 Sudeste 25 Sudeste 0 906.2 -1.4 32
2019-03-25 15:00:00 15.6 8 Sudeste 21 Este 0 906.6 -1.5 31
2019-03-25 14:00:00 15.4 11 Sudeste 21 Este 0 907.2 -1 35
2019-03-25 13:00:00 13.7 6 Sudoeste 18 Sur 0 907.6 -0.8 44
2019-03-25 12:00:00 12.3 9 Sur 18 Sudoeste 0 908.1 -0.1 51
2019-03-25 11:00:00 11.5 9 Sudoeste 18 Sur 0 908.2 0.2 52
2019-03-25 10:00:00 9.4 8 Sudoeste 15 Oeste 0 908.4 0.6 57
2019-03-25 09:00:00 8.6 4 Sudoeste 14 Noroeste 0 908.2 0.3 63
2019-03-25 08:00:00 3.5 10 Noroeste 15 Norte 0 908 0.2 82
2019-03-25 07:00:00 2.6 10 Norte 16 Noroeste 0 907.8 -0.2 82
2019-03-25 06:00:00 1.4 9 Noroeste 12 Noroeste 0 907.9 -0.4 87
2019-03-25 05:00:00 1.4 6 Noroeste 8 Noroeste 0 907.8 -0.7 84
2019-03-25 04:00:00 2.2 6 Noroeste 9 Norte 0 908 -0.5 81
2019-03-25 03:00:00 3.8 5 Norte 11 Norte 0 908.3 -0.4 79
2019-03-25 02:00:00 4.3 9 Norte 13 Norte 0 908.5 -0.1 78
2019-03-25 01:00:00 5.3 5 Norte 10 Norte 0 908.5 0 72
2019-03-25 00:00:00 7.1 4 Norte 14 Norte 0 908.7 1 65
2019-03-24 23:00:00 6.7 7 Norte 12 Noroeste 0 908.6 1.7 66
2019-03-24 22:00:00 9.8 3 Norte 17 Este 0 908.5 1.8 51
2019-03-24 21:00:00 12.9 11 Este 20 Este 0 907.7 0.9 42
2019-03-24 20:00:00 11.7 0 Calma 11 Sur 0 906.9 0 35
2019-03-24 19:00:00 17.1 8 Sur 20 Sudeste 0 906.7 -0.7 26
2019-03-24 18:00:00 18.6 10 Sur 22 Sudeste 0 906.8 -1.1 26
2019-03-24 17:00:00 19.1 8 Sudeste 22 Sudeste 0 906.9 -1 27
2019-03-24 16:00:00 18.7 13 Sudeste 24 Sudeste 0 907.4 -1.5 27
2019-03-24 15:00:00 18.4 10 Sudeste 26 Sur 0 907.9 -1.3 29
2019-03-24 14:00:00 17.8 13 Sudeste 33 Sudoeste 0 907.9 -1.3 31
2019-03-24 13:00:00 17 11 Sur 23 Sudoeste 0 908.9 -0.4 34
2019-03-24 12:00:00 15.7 9 Sur 19 Sur 0 909.2 0.1 40
2019-03-24 11:00:00 14.2 9 Sudeste 16 Sudeste 0 909.2 0.2 45
2019-03-24 10:00:00 12.2 7 Este 13 Este 0 909.3 0.5 49
2019-03-24 09:00:00 10 3 Este 8 Este 0 909.1 0.6 61
2019-03-24 08:00:00 4.2 3 Nordeste 12 Este 0 909 0.7 78
2019-03-24 07:00:00 2.8 3 Este 8 Este 0 908.8 0.5 81
2019-03-24 06:00:00 2.6 5 Este 7 Este 0 908.5 0.2 81
2019-03-24 05:00:00 3 2 Este 6 Nordeste 0 908.3 0 75
2019-03-24 04:00:00 4.9 3 Este 8 Este 0 908.3 -0.2 68
2019-03-24 03:00:00 3.2 4 Nordeste 10 Nordeste 0 908.3 -0.1 73
2019-03-24 02:00:00 4.2 6 Nordeste 10 Nordeste 0 908.3 -0.2 68
2019-03-24 01:00:00 5.4 6 Nordeste 11 Nordeste 0 908.5 -0.1 65
2019-03-24 00:00:00 5 9 Nordeste 12 Nordeste 0 908.4 0.1 68
2019-03-23 23:00:00 4.3 7 Nordeste 12 Nordeste 0 908.5 0.5 67
2019-03-23 22:00:00 5.2 8 Nordeste 12 Nordeste 0 908.6 0.7 63
2019-03-23 21:00:00 5.8 8 Nordeste 10 Nordeste 0 908.3 0.7 59
2019-03-23 20:00:00 9.5 0 Calma 10 Sur 0 908 0.4 39
2019-03-23 19:00:00 15.8 7 Sudoeste 19 Sudoeste 0 907.9 0.1 29
2019-03-23 18:00:00 17.2 7 Sur 23 Sudoeste 0 907.6 -0.7 29
2019-03-23 17:00:00 17.7 3 Sur 17 Sudoeste 0 907.6 -1.1 29
2019-03-23 16:00:00 17 9 Sur 23 Sudoeste 0 907.8 -1.5 30
2019-03-23 15:00:00 16.9 6 Sudoeste 23 Sudoeste 0 908.3 -1.2 31
2019-03-23 14:00:00 16.4 6 Sudoeste 20 Sudoeste 0 908.7 -1.2 32
2019-03-23 13:00:00 15.5 9 Sur 20 Sur 0 909.3 -0.7 38
2019-03-23 12:00:00 13.9 6 Sur 14 Sur 0 909.5 -0.6 41
2019-03-23 11:00:00 12.3 7 Sur 14 Sur 0 909.9 0.1 45
2019-03-23 10:00:00 9.9 4 Este 10 Sudeste 0 910 0.3 48
2019-03-23 09:00:00 8.1 4 Sur 9 Este 0 910.1 0.3 59
2019-03-23 08:00:00 0.9 0 Calma 8 Este 0 909.8 0.1 83
2019-03-23 07:00:00 -0.5 7 Nordeste 10 Nordeste 0 909.7 -0.3 83
2019-03-23 06:00:00 -0.7 5 Nordeste 9 Nordeste 0 909.8 -0.7 83
2019-03-23 05:00:00 -1.2 9 Nordeste 10 Nordeste 0 909.7 -0.5 82
2019-03-23 04:00:00 -0.5 5 Nordeste 7 Nordeste 0 910 -0.1 78
2019-03-23 03:00:00 2 2 Nordeste 11 Sudeste 0 910.5 0.2 72
2019-03-23 02:00:00 0.5 8 Nordeste 11 Nordeste 0 910.2 -0.3 77
2019-03-23 01:00:00 1.1 7 Nordeste 12 Nordeste 0 910.1 -0.2 74
2019-03-23 00:00:00 1.7 8 Nordeste 11 Nordeste 0 910.3 0.3 72
2019-03-22 23:00:00 2.3 7 Nordeste 9 Nordeste 0 910.5 1 71
2019-03-22 22:00:00 3.1 7 Norte 9 Norte 0 910.3 1.3 69
2019-03-22 21:00:00 4.1 6 Nordeste 8 Nordeste 0 910 1.5 60
2019-03-22 20:00:00 9.1 0 Calma 12 Sudoeste 0 909.5 0.9 39
2019-03-22 19:00:00 13.5 10 Sudoeste 18 Sudoeste 0 909 0.2 33
2019-03-22 18:00:00 15.1 12 Sudoeste 19 Sudoeste 0 908.5 -0.5 31
2019-03-22 17:00:00 15.9 7 Oeste 19 Sudoeste 0 908.6 -0.7 30
2019-03-22 16:00:00 16 9 Sudoeste 19 Oeste 0 908.8 -1.1 31
2019-03-22 15:00:00 15 6 Sudoeste 18 Sudoeste 0 909 -1.1 33
2019-03-22 14:00:00 13.8 7 Oeste 22 Noroeste 0 909.3 -1 36
2019-03-22 13:00:00 12.8 5 Oeste 17 Sudoeste 0 909.9 -0.3 39
2019-03-22 12:00:00 11.6 4 Sudoeste 15 Sudoeste 0 910.1 0.2 43
2019-03-22 11:00:00 9.9 6 Sudoeste 13 Sudoeste 0 910.3 0.5 49
2019-03-22 10:00:00 8.1 3 Sur 8 Sudoeste 0 910.2 0.6 61
2019-03-22 09:00:00 4.8 0 Calma 8 Nordeste 0 909.9 0.5 88
2019-03-22 08:00:00 -2 6 Nordeste 12 Norte 0 909.8 0.4 97
2019-03-22 07:00:00 -3.1 5 Nordeste 8 Nordeste 0 909.6 0.2 97
2019-03-22 06:00:00 -2.6 5 Nordeste 9 Nordeste 0 909.4 -0.1 96
2019-03-22 05:00:00 -2.5 5 Nordeste 8 Nordeste 0 909.4 -0.4 96
2019-03-22 04:00:00 -1.8 4 Nordeste 9 Nordeste 0 909.4 -0.6 93
2019-03-22 03:00:00 -1.8 6 Nordeste 10 Nordeste 0 909.5 -0.4 90
2019-03-22 02:00:00 -1.1 8 Nordeste 9 Nordeste 0 909.8 0.2 86
2019-03-22 01:00:00 -0.1 0 Calma 5 Sudeste 0 910 0.6 80
2019-03-22 00:00:00 0.9 4 Nordeste 11 Nordeste 0 909.9 0.8 76
2019-03-21 23:00:00 1.2 9 Nordeste 10 Nordeste 0 909.6 1.1 73
2019-03-21 22:00:00 1.8 4 Nordeste 9 Norte 0 909.4 1.4 70
2019-03-21 21:00:00 2.6 4 Nordeste 6 Nordeste 0 909.1 1.2 60
2019-03-21 20:00:00 8.1 5 Sudoeste 12 Sudoeste 0 908.5 0.3 38
2019-03-21 19:00:00 12.1 8 Sudoeste 15 Sudoeste 0 908 -0.6 31
2019-03-21 18:00:00 13.6 8 Sudoeste 18 Sudoeste 0 907.9 -1.3 29
2019-03-21 17:00:00 13.9 8 Sur 20 Sudoeste 0 908.2 -1.6 28
2019-03-21 16:00:00 13.4 3 Oeste 19 Sudoeste 0 908.6 -1.7 30
2019-03-21 15:00:00 12.6 6 Sur 18 Sudoeste 0 909.2 -1.4 29
2019-03-21 14:00:00 11.7 5 Sur 26 Sur 0 909.8 -1 32
2019-03-21 13:00:00 10.4 6 Sur 19 Sudeste 0 910.3 -0.9 37
2019-03-21 12:00:00 9.1 10 Sur 20 Sur 0 910.6 -0.9 38
2019-03-21 11:00:00 7.7 4 Sur 14 Sudoeste 0 910.8 -0.5 46
2019-03-21 10:00:00 5.6 2 Norte 9 Noroeste 0 911.2 -0.2 54
2019-03-21 09:00:00 3.4 0 Calma 10 Noroeste 0 911.5 0.2 61
2019-03-21 08:00:00 -2.5 5 Nordeste 10 Nordeste 0 911.3 0.2 75
2019-03-21 07:00:00 -3.1 6 Nordeste 10 Nordeste 0 911.4 0.1 74
2019-03-21 06:00:00 -2.7 6 Nordeste 10 Norte 0 911.3 -0.4 70
2019-03-21 05:00:00 -0.9 5 Nordeste 15 Norte 0 911.1 -0.6 63
2019-03-21 04:00:00 0.6 5 Nordeste 11 Este 0 911.3 -0.4 56
2019-03-21 03:00:00 -1 7 Nordeste 12 Norte 0 911.7 0.1 66
2019-03-21 02:00:00 -1.5 3 Norte 8 Norte 0 911.7 -0.1 68
2019-03-21 01:00:00 -1.1 3 Norte 7 Norte 0 911.7 0 78
2019-03-21 00:00:00 -0.3 5 Norte 9 Norte 0 911.6 0.1 78
2019-03-20 23:00:00 1.2 2 Norte 5 Norte 0 911.8 0.9 71
2019-03-20 22:00:00 3 2 Noroeste 8 Norte 0 911.7 1.1 66
2019-03-20 21:00:00 3.3 4 Norte 10 Sudoeste 0 911.5 1.5 59
2019-03-20 20:00:00 7.7 11 Sudoeste 16 Sudoeste 0 910.9 0.8 45
2019-03-20 19:00:00 12 10 Sudoeste 16 Oeste 0 910.6 0.4 39
2019-03-20 18:00:00 13.4 8 Sudoeste 20 Oeste 0 910 -0.7 38
2019-03-20 17:00:00 13.2 7 Oeste 18 Sudoeste 0 910.1 -1.1 39
2019-03-20 16:00:00 12.5 8 Sudoeste 21 Sudoeste 0 910.2 -1.5 43
2019-03-20 15:00:00 11.6 9 Oeste 26 Sudoeste 0 910.7 -1.1 48
2019-03-20 14:00:00 11.2 10 Sudeste 23 Noroeste 0 911.2 -0.8 47
2019-03-20 13:00:00 10.5 7 Oeste 18 Sudoeste 0 911.7 -0.4 53
2019-03-20 12:00:00 9.1 4 Sudoeste 14 Sudoeste 0 911.8 0 62
2019-03-20 11:00:00 7.5 4 Sudoeste 15 Oeste 0 912 0.5 70
2019-03-20 10:00:00 4.8 5 Sudoeste 10 Sudoeste 0 912.1 0.7 83
2019-03-20 09:00:00 2.1 0 Calma 4 Oeste 0 911.8 0.8 91
2019-03-20 08:00:00 -2.4 0 Calma 5 Sudoeste 0 911.5 0.3 96
2019-03-20 07:00:00 -2.2 4 Sudoeste 7 Sudoeste 0 911.4 0 96
2019-03-20 06:00:00 -2.3 0 Calma 7 Nordeste 0 911 -0.9 93
2019-03-20 05:00:00 -1.3 3 Nordeste 10 Nordeste 0 911.2 -1.1 91
2019-03-20 04:00:00 0.2 4 Nordeste 15 Nordeste 0 911.4 -1 91
2019-03-20 03:00:00 0.3 12 Nordeste 15 Nordeste 0 911.9 -0.3 93
2019-03-20 02:00:00 -0.5 9 Nordeste 12 Nordeste 0 912.3 0.4 92
2019-03-20 01:00:00 -0.6 3 Norte 6 Norte 0 912.4 0.8 87
2019-03-20 00:00:00 1.1 2 Sudoeste 9 Sudoeste 0 912.2 1.1 81
2019-03-19 23:00:00 2.1 8 Nordeste 13 Nordeste 0 911.9 1 78
2019-03-19 22:00:00 2.4 6 Nordeste 11 Nordeste 0 911.6 1.2 75
2019-03-19 21:00:00 4.3 5 Nordeste 12 Sudeste 0 911.1 1.2 66
2019-03-19 20:00:00 7.1 7 Sudeste 19 Sudeste 0 910.9 1.3 53
2019-03-19 19:00:00 10.6 12 Sur 22 Sur 0 910.4 0.9 44
2019-03-19 18:00:00 12.5 13 Sur 26 Sur 0 909.9 0.4 41
2019-03-19 17:00:00 13.2 12 Sur 25 Sudoeste 0 909.6 -0.2 41
2019-03-19 16:00:00 12.3 10 Sudoeste 27 Sudoeste 0 909.5 -0.6 42
2019-03-19 15:00:00 12.7 9 Sudoeste 23 Sudoeste 0 909.5 -0.6 44
2019-03-19 14:00:00 12.2 7 Oeste 24 Oeste 0 909.8 -0.3 45
2019-03-19 13:00:00 11.4 17 Sudoeste 31 Sudoeste 0 910.1 0.1 47
2019-03-19 12:00:00 10.2 13 Sudoeste 37 Sudoeste 0 910.1 0.5 48
2019-03-19 11:00:00 9.4 10 Sudoeste 23 Sudoeste 0 910.1 0.5 52
2019-03-19 10:00:00 8 4 Sudoeste 16 Sudoeste 0 910 0.7 56
2019-03-19 09:00:00 4.7 8 Este 13 Este 0 909.6 0.4 70
2019-03-19 08:00:00 -0.5 10 Este 15 Este 0 909.6 0.5 92
2019-03-19 07:00:00 -2.5 6 Este 9 Este 0 909.3 0 95
2019-03-19 06:00:00 -2.6 4 Sudeste 9 Sudeste 0 909.2 -0.7 94
2019-03-19 05:00:00 -2.1 5 Sudeste 10 Este 0 909.1 -0.8 92
2019-03-19 04:00:00 -1.3 6 Este 9 Este 0 909.3 -1 91
2019-03-19 03:00:00 -0.5 6 Este 12 Este 0 909.9 -0.3 88
2019-03-19 02:00:00 -0.6 7 Este 13 Este 0 909.9 -0.3 87
2019-03-19 01:00:00 -0.1 9 Este 12 Este 0 910.3 0.5 85
2019-03-19 00:00:00 -0.1 0 Calma 8 Este 0 910.2 0.5 82